Data for 06/12/2017

Time Sea-Level Adjusted Pressure Absolute Pressure Temperature Relative Humidity Dew Point   
(mb) (inHg) (mb) (inHg) (C) (F) (%) (C) (F)
00:05 1012 29.88 841 24.83 12.5 54.5 50 2.6 36.6
00:10 1012 29.88 841 24.83 12.6 54.6 51 2.7 36.8
00:15 1012 29.88 841 24.83 12.5 54.5 51 2.8 37.1
00:20 1012 29.88 841 24.83 12.3 54.1 53 3 37.3
00:25 1012 29.88 841 24.83 12.1 53.8 53 2.8 37
00:30 1012 29.88 841 24.83 12.1 53.7 53 2.8 37.1
00:35 1012 29.88 842 24.86 12 53.6 53 2.9 37.2
00:40 1012 29.88 842 24.86 11.9 53.4 54 2.9 37.2
00:45 1013 29.91 842 24.86 11.8 53.2 54 2.8 37.1
00:50 1013 29.91 842 24.86 11.9 53.4 53 2.7 36.8
00:55 1013 29.91 842 24.86 11.9 53.4 52 2.5 36.5
01:00 1013 29.91 842 24.86 12 53.7 52 2.4 36.3
01:05 1013 29.91 842 24.86 12.1 53.8 51 2.4 36.3
01:10 1013 29.91 842 24.86 11.9 53.5 52 2.6 36.6
01:15 1013 29.91 842 24.86 11.7 53.1 53 2.6 36.7
01:20 1013 29.91 842 24.86 11.5 52.8 54 2.6 36.7
01:25 1013 29.91 842 24.86 11.4 52.5 54 2.4 36.4
01:30 1013 29.91 842 24.86 11.4 52.4 54 2.4 36.2
01:35 1013 29.91 842 24.86 11.4 52.5 54 2.4 36.3
01:40 1013 29.91 842 24.86 11.3 52.3 54 2.3 36.2
01:45 1013 29.91 842 24.86 11.2 52.2 54 2.2 36
01:50 1013 29.91 842 24.86 11.3 52.3 53 2.2 35.9
01:55 1012 29.88 842 24.86 11.2 52.2 54 2.2 36
02:00 1013 29.91 842 24.86 11.2 52.2 53 2.2 35.9
02:05 1013 29.91 842 24.86 11.2 52.1 53 2 35.7
02:10 1013 29.91 842 24.86 11.2 52.2 54 2.2 35.9
02:15 1013 29.91 842 24.86 11.1 52 54 2.1 35.8
02:20 1013 29.91 842 24.86 11.1 52 54 2.1 35.8
02:25 1013 29.91 842 24.86 11.2 52.1 53 2.1 35.9
02:30 1013 29.91 842 24.86 11.2 52.1 54 2.2 36
02:35 1013 29.91 842 24.86 11.2 52.2 54 2.2 36
02:40 1013 29.91 842 24.86 11.2 52.1 54 2.3 36.1
02:45 1013 29.91 842 24.86 11.1 52 55 2.4 36.3
02:50 1013 29.91 842 24.86 11.1 51.9 54 2.2 35.9
02:55 1013 29.91 842 24.86 11.2 52.1 53 2.1 35.8
03:00 1012 29.88 842 24.86 11.3 52.3 53 2.1 35.8
03:05 1012 29.88 842 24.86 11.3 52.3 53 2.2 35.9
03:10 1013 29.91 842 24.86 11.3 52.3 53 2.1 35.8
03:15 1013 29.91 842 24.86 11.3 52.3 53 2.1 35.7
03:20 1013 29.91 842 24.86 11.3 52.4 53 2.1 35.7
03:25 1013 29.91 842 24.86 11.3 52.4 53 2.1 35.8
03:30 1013 29.91 842 24.86 11.3 52.4 53 2.1 35.8
03:35 1013 29.91 842 24.86 11.3 52.3 53 2.1 35.9
03:40 1013 29.91 842 24.86 11.4 52.4 53 2.1 35.7
03:45 1013 29.91 842 24.86 11.4 52.5 53 2.1 35.8
03:50 1013 29.91 842 24.86 11.4 52.5 53 2.1 35.9
03:55 1013 29.91 842 24.86 11.4 52.4 52 2 35.6
04:00 1012 29.88 842 24.86 11.5 52.6 52 2.1 35.7
04:05 1012 29.88 841 24.83 11.5 52.6 52 2 35.5
04:10 1012 29.88 841 24.83 11.5 52.6 52 2 35.6
04:15 1012 29.88 841 24.83 11.4 52.6 52 2 35.6
04:20 1012 29.88 841 24.83 11.4 52.5 52 2.1 35.7
04:25 1012 29.88 841 24.83 11.3 52.3 53 2.1 35.8
04:30 1012 29.88 842 24.86 11.3 52.3 53 2 35.5
04:35 1012 29.88 842 24.86 11.3 52.3 53 2 35.6
04:40 1013 29.91 842 24.86 11.3 52.3 53 2.1 35.7
04:45 1013 29.91 842 24.86 11.3 52.3 53 2 35.7
04:50 1012 29.88 842 24.86 11.3 52.4 52 2 35.5
04:55 1012 29.88 842 24.86 11.4 52.6 52 2.1 35.8
05:00 1012 29.88 842 24.86 11.5 52.7 52 2 35.6
05:05 1012 29.88 842 24.86 11.6 52.8 52 2.1 35.8
05:10 1012 29.88 842 24.86 11.7 53.1 51 2 35.7
05:15 1012 29.88 842 24.86 11.7 53.1 52 2.2 35.9
05:20 1012 29.88 842 24.86 11.6 52.8 52 2.1 35.9
05:25 1012 29.88 842 24.86 11.6 52.8 52 2.1 35.9
05:30 1012 29.88 841 24.83 11.4 52.5 54 2.4 36.2
05:35 1012 29.88 841 24.83 11.3 52.3 53 2.2 36
05:40 1012 29.88 841 24.83 11.2 52.2 55 2.5 36.4
05:45 1012 29.88 841 24.83 11.1 52 54 2.3 36.2
05:50 1012 29.88 841 24.83 11.2 52.1 55 2.4 36.3
05:55 1012 29.88 841 24.83 11.2 52.1 54 2.3 36.1
06:00 1012 29.88 841 24.83 11.3 52.4 53 2.2 35.9
06:05 1012 29.88 841 24.83 11.4 52.5 54 2.4 36.3
06:10 1012 29.88 841 24.83 11.4 52.4 54 2.5 36.5
06:15 1012 29.88 841 24.83 11.3 52.3 55 2.6 36.8
06:20 1012 29.88 841 24.83 11.2 52.2 56 2.8 37.1
06:25 1012 29.88 841 24.83 11.1 52 57 3.1 37.6
06:30 1012 29.88 841 24.83 11.2 52.1 58 3.3 37.9
06:35 1012 29.88 841 24.83 11.1 52 58 3.3 37.9
06:40 1012 29.88 841 24.83 11.2 52.1 58 3.3 37.9
06:45 1012 29.88 842 24.86 11.2 52.1 58 3.2 37.8
06:50 1012 29.88 842 24.86 11.3 52.4 58 3.3 38
06:55 1012 29.88 841 24.83 11.5 52.6 58 3.5 38.3
07:00 1012 29.88 841 24.83 11.5 52.8 58 3.6 38.5
07:05 1012 29.88 841 24.83 11.5 52.7 59 3.8 38.9
07:10 1012 29.88 841 24.83 11.5 52.7 59 3.9 39
07:15 1012 29.88 841 24.83 11.5 52.7 60 4 39.2
07:20 1012 29.88 841 24.83 11.5 52.7 60 4.1 39.4
07:25 1012 29.88 841 24.83 11.5 52.7 61 4.3 39.8
07:30 1012 29.88 841 24.83 11.6 52.8 61 4.3 39.8
07:35 1012 29.88 841 24.83 11.6 52.9 61 4.5 40
07:40 1012 29.88 842 24.86 11.7 53.1 61 4.6 40.2
07:45 1012 29.88 842 24.86 11.8 53.2 61 4.6 40.3
07:50 1012 29.88 842 24.86 11.7 53.1 61 4.4 39.9
07:55 1012 29.88 841 24.83 11.8 53.2 60 4.2 39.6
08:00 1012 29.88 841 24.83 11.9 53.3 60 4.3 39.7
08:05 1012 29.88 841 24.83 11.9 53.4 59 4.3 39.7
08:10 1012 29.88 842 24.86 11.8 53.3 60 4.2 39.6
08:15 1013 29.91 842 24.86 11.8 53.2 60 4.3 39.7
08:20 1012 29.88 842 24.86 11.9 53.5 59 4.3 39.8
08:25 1012 29.88 842 24.86 11.8 53.3 61 4.7 40.4
08:30 1012 29.88 841 24.83 11.7 53 63 5 41
08:35 1012 29.88 841 24.83 11.3 52.4 65 5 40.9
08:40 1011 29.85 841 24.83 11.3 52.3 66 5.1 41.1
08:45 1012 29.88 841 24.83 11.2 52.2 66 5.2 41.4
08:50 1011 29.85 841 24.83 11.3 52.4 67 5.5 41.9
08:55 1011 29.85 840 24.81 11.6 52.9 64 5.1 41.2
09:00 1011 29.85 840 24.81 12 53.6 63 5.2 41.4
09:05 1011 29.85 841 24.83 12.5 54.6 62 5.5 42
09:10 1011 29.85 840 24.81 12.7 54.9 62 5.6 42
09:15 1011 29.85 840 24.81 12.7 54.8 61 5.4 41.7
09:20 1011 29.85 840 24.81 12.7 54.9 60 5.3 41.5
09:25 1011 29.85 840 24.81 12.7 54.9 60 5.3 41.6
09:30 1011 29.85 840 24.81 12.8 55.1 59 5.1 41.2
09:35 1011 29.85 840 24.81 12.9 55.2 61 5.5 42
09:40 1011 29.85 840 24.81 12.8 55 60 5.3 41.5
09:45 1011 29.85 840 24.81 13 55.4 60 5.5 41.9
09:50 1011 29.85 840 24.81 13.2 55.7 59 5.5 41.9
09:55 1011 29.85 840 24.81 13.7 56.7 56 5.1 41.2
10:00 1011 29.85 840 24.81 14.8 58.7 53 5.5 41.9
10:05 1011 29.85 840 24.81 15.4 59.6 51 5.4 41.7
10:10 1011 29.85 840 24.81 16 60.9 50 5.7 42.2
10:15 1010 29.83 840 24.81 15.8 60.4 52 6 42.8
10:20 1010 29.83 840 24.81 16 60.7 50 5.7 42.3
10:25 1010 29.83 839 24.78 16.2 61.2 50 6 42.7
10:30 1010 29.83 839 24.78 16.2 61.2 50 5.8 42.4
10:35 1010 29.83 839 24.78 16.5 61.6 50 6 42.8
10:40 1010 29.83 839 24.78 16.8 62.2 49 6.2 43.1
10:45 1010 29.83 839 24.78 16.7 62 49 6.1 43.1
10:50 1010 29.83 839 24.78 17 62.6 49 6.2 43.1
10:55 1009 29.8 839 24.78 17 62.6 50 6.6 43.9
11:00 1009 29.8 839 24.78 16.3 61.3 51 6.3 43.3
11:05 1009 29.8 838 24.75 16.6 62 50 6.1 43.1
11:10 1009 29.8 838 24.75 16.6 61.9 51 6.4 43.6
11:15 1009 29.8 838 24.75 16.5 61.6 52 6.6 43.9
11:20 1009 29.8 838 24.75 16.2 61.1 53 6.7 44
11:25 1009 29.8 838 24.75 16.3 61.3 53 6.7 44.1
11:30 1009 29.8 838 24.75 16.5 61.7 52 6.8 44.2
11:35 1009 29.8 838 24.75 16.6 61.8 52 6.7 44
11:40 1009 29.8 838 24.75 16.7 62.1 52 6.9 44.4
11:45 1009 29.8 838 24.75 17 62.5 52 7.1 44.8
11:50 1009 29.8 838 24.75 17.2 62.9 51 7.2 44.9
11:55 1009 29.8 838 24.75 17.3 63.2 51 7.3 45.2
12:00 1009 29.8 838 24.75 17.5 63.5 51 7.4 45.2
12:05 1008 29.77 838 24.75 17.8 64.1 49 7.2 44.9
12:10 1008 29.77 837 24.72 18.1 64.5 50 7.5 45.5
12:15 1008 29.77 837 24.72 18.6 65.6 47 7.1 44.9
12:20 1008 29.77 837 24.72 19.1 66.4 47 7.6 45.7
12:25 1008 29.77 837 24.72 19.3 66.7 46 7.4 45.3
12:30 1008 29.77 837 24.72 19.3 66.8 46 7.5 45.4
12:35 1008 29.77 837 24.72 19.7 67.5 45 7.6 45.7
12:40 1008 29.77 837 24.72 20.1 68.1 45 7.8 46
12:45 1007 29.74 837 24.72 19.8 67.6 45 7.5 45.5
12:50 1007 29.74 837 24.72 20 68 45 7.9 46.3
12:55 1007 29.74 836 24.69 20.2 68.3 45 8 46.3
13:00 1007 29.74 836 24.69 20.4 68.6 45 8.2 46.7
13:05 1007 29.74 836 24.69 20.2 68.4 45 8 46.5
13:10 1007 29.74 836 24.69 20.7 69.2 44 8.3 46.9
13:15 1007 29.74 836 24.69 20.9 69.5 44 8.2 46.8
13:20 1007 29.74 836 24.69 20.8 69.4 45 8.6 47.5
13:25 1006 29.71 836 24.69 20.7 69.3 45 8.5 47.3
13:30 1006 29.71 836 24.69 20.3 68.6 47 8.7 47.7
13:35 1006 29.71 836 24.69 20.4 68.8 45 8.2 46.8
13:40 1006 29.71 835 24.66 20.4 68.8 46 8.5 47.4
13:45 1006 29.71 835 24.66 20.6 69 44 8.2 46.8
13:50 1006 29.71 835 24.66 20.5 68.8 44 8 46.3
13:55 1006 29.71 835 24.66 20.6 69 44 8 46.4
14:00 1006 29.71 835 24.66 20.5 68.8 44 7.8 46.1
14:05 1006 29.71 835 24.66 20.5 68.8 44 8 46.3
14:10 1006 29.71 835 24.66 20.7 69.3 43 7.9 46.3
14:15 1006 29.71 835 24.66 20.7 69.2 43 7.9 46.2
14:20 1006 29.71 835 24.66 20.7 69.3 43 7.9 46.3
14:25 1006 29.71 835 24.66 20.4 68.8 43 7.7 45.8
14:30 1005 29.68 835 24.66 20.3 68.6 43 7.4 45.3
14:35 1005 29.68 834 24.63 20.3 68.5 43 7.3 45.1
14:40 1005 29.68 834 24.63 20.2 68.4 43 7.2 45
14:45 1005 29.68 834 24.63 20.2 68.3 43 7.3 45.1
14:50 1005 29.68 834 24.63 20.1 68.1 44 7.6 45.7
14:55 1005 29.68 834 24.63 19.8 67.7 44 7.3 45.1
15:00 1005 29.68 834 24.63 19.8 67.7 43 7.2 44.9
15:05 1005 29.68 834 24.63 19.9 67.7 44 7.2 45
15:10 1005 29.68 834 24.63 19.7 67.5 43 7 44.5
15:15 1005 29.68 834 24.63 19.7 67.5 43 6.8 44.2
15:20 1006 29.71 835 24.66 19.7 67.4 42 6.6 43.9
15:25 1006 29.71 835 24.66 19.7 67.4 42 6.7 44
15:30 1007 29.74 836 24.69 19.6 67.3 43 6.9 44.5
15:35 1008 29.77 837 24.72 17.1 62.7 56 8.4 47
15:40 1008 29.77 837 24.72 13.2 55.7 63 6.4 43.6
15:45 1008 29.77 837 24.72 11.1 51.9 77 7.2 44.9
15:50 1008 29.77 837 24.72 9.3 48.7 80 6 42.7
15:55 1008 29.77 837 24.72 9.9 49.7 76 5.8 42.5
16:00 1008 29.77 838 24.75 10.2 50.4 73 5.7 42.3
16:05 1008 29.77 838 24.75 10.9 51.7 71 5.9 42.7
16:10 1008 29.77 837 24.72 11.1 51.9 79 7.7 45.8
16:15 1008 29.77 838 24.75 10.2 50.4 84 7.7 45.8
16:20 1009 29.8 838 24.75 10 49.9 82 7.1 44.8
16:25 1009 29.8 839 24.78 10 49.9 84 7.4 45.3
16:30 1010 29.83 839 24.78 10 49.9 83 7.2 45
16:35 1010 29.83 839 24.78 10 49.9 83 7.2 45
16:40 1010 29.83 840 24.81 10.1 50.3 83 7.4 45.3
16:45 1011 29.85 840 24.81 10.4 50.6 84 7.8 46
16:50 1011 29.85 840 24.81 10.6 51.1 84 8 46.3
16:55 1010 29.83 839 24.78 11 51.7 77 7.1 44.9
17:00 1010 29.83 839 24.78 11.3 52.3 82 8.3 46.9
17:05 1009 29.8 838 24.75 10.7 51.3 80 7.5 45.5
17:10 1008 29.77 837 24.72 10.7 51.3 80 7.4 45.3
17:15 1009 29.8 838 24.75 10.8 51.4 80 7.5 45.5
17:20 1010 29.83 839 24.78 10.8 51.4 80 7.4 45.3
17:25 1010 29.83 840 24.81 10.9 51.6 80 7.6 45.7
17:30 1011 29.85 840 24.81 11.1 52 80 7.8 46.1
17:35 1010 29.83 840 24.81 11.2 52.1 79 7.7 45.8
17:40 1010 29.83 840 24.81 11.2 52.2 80 7.9 46.3
17:45 1011 29.85 840 24.81 11.2 52.1 80 7.8 46.1
17:50 1010 29.83 840 24.81 11.2 52.1 81 8 46.5
17:55 1010 29.83 839 24.78 11.1 52 81 7.9 46.3
18:00 1010 29.83 839 24.78 11.1 52 82 8.2 46.8
18:05 1010 29.83 839 24.78 11.2 52.1 80 8 46.3
18:10 1010 29.83 839 24.78 11.3 52.4 79 7.9 46.3
18:15 1010 29.83 839 24.78 11.6 52.8 77 7.7 45.9
18:20 1010 29.83 839 24.78 11.7 53 76 7.6 45.7
18:25 1010 29.83 839 24.78 11.8 53.2 76 7.7 45.9
18:30 1009 29.8 838 24.75 11.8 53.2 77 7.9 46.3
18:35 1010 29.83 839 24.78 11.7 53.1 77 7.9 46.1
18:40 1010 29.83 839 24.78 11.7 53.1 77 7.9 46.3
18:45 1010 29.83 840 24.81 11.6 53 78 7.9 46.2
18:50 1011 29.85 840 24.81 11.2 52.2 80 7.9 46.1
18:55 1011 29.85 840 24.81 11 51.7 82 8 46.4
19:00 1010 29.83 840 24.81 10.8 51.5 82 7.9 46.2
19:05 1010 29.83 840 24.81 10.7 51.3 83 8 46.5
19:10 1010 29.83 839 24.78 10.7 51.3 83 8 46.5
19:15 1010 29.83 839 24.78 10.7 51.3 83 8 46.4
19:20 1010 29.83 839 24.78 10.7 51.2 84 8.1 46.5
19:25 1010 29.83 839 24.78 10.6 51 85 8.2 46.7
19:30 1010 29.83 839 24.78 10.5 50.8 85 8.1 46.6
19:35 1010 29.83 839 24.78 10.4 50.7 86 8.1 46.6
19:40 1010 29.83 839 24.78 10.4 50.6 86 8.1 46.5
19:45 1010 29.83 839 24.78 10.3 50.5 86 8 46.5
19:50 1010 29.83 839 24.78 10.3 50.5 85 7.9 46.3
19:55 1010 29.83 840 24.81 10.1 50.2 85 7.7 45.9
20:00 1010 29.83 839 24.78 10.1 50.2 85 7.7 45.9
20:05 1010 29.83 839 24.78 10.1 50.2 84 7.6 45.7
20:10 1010 29.83 839 24.78 10 50.1 84 7.4 45.3
20:15 1010 29.83 839 24.78 9.9 49.9 84 7.4 45.3
20:20 1010 29.83 839 24.78 9.8 49.7 84 7.2 45
20:25 1010 29.83 839 24.78 9.8 49.7 83 7.1 44.8
20:30 1010 29.83 840 24.81 9.8 49.7 83 7.1 44.8
20:35 1010 29.83 840 24.81 9.8 49.7 82 6.9 44.5
20:40 1010 29.83 840 24.81 9.7 49.5 82 6.7 44.1
20:45 1011 29.85 840 24.81 9.8 49.6 81 6.8 44.2
20:50 1010 29.83 840 24.81 9.9 49.8 80 6.5 43.8
20:55 1011 29.85 840 24.81 10 49.9 78 6.3 43.4
21:00 1010 29.83 840 24.81 10.1 50.1 77 6.3 43.3
21:05 1010 29.83 840 24.81 10.1 50.2 77 6.3 43.4
21:10 1010 29.83 840 24.81 10.2 50.3 79 6.6 43.9
21:15 1010 29.83 840 24.81 10.2 50.3 79 6.7 44.1
21:20 1010 29.83 840 24.81 10.2 50.4 82 7.3 45.1
21:25 1010 29.83 840 24.81 10.1 50.1 76 6 42.8
21:30 1010 29.83 840 24.81 9.7 49.5 75 5.4 41.8
21:35 1010 29.83 839 24.78 9.4 48.9 75 5.2 41.4
21:40 1010 29.83 839 24.78 9.4 48.9 74 4.9 40.8
21:45 1010 29.83 839 24.78 9.4 48.9 75 5.3 41.5
21:50 1010 29.83 839 24.78 9.3 48.7 74 4.9 40.9
21:55 1010 29.83 839 24.78 9.2 48.6 76 5.2 41.3
22:00 1010 29.83 839 24.78 8.9 47.9 80 5.6 42.1
22:05 1010 29.83 839 24.78 8.7 47.6 83 5.9 42.6
22:10 1010 29.83 839 24.78 8.6 47.4 84 6.1 43
22:15 1010 29.83 839 24.78 8.4 47.2 85 6.1 43
22:20 1010 29.83 839 24.78 8.3 47 87 6.2 43.2
22:25 1010 29.83 839 24.78 8.1 46.6 85 5.8 42.4
22:30 1010 29.83 839 24.78 8 46.3 83 5.3 41.6
22:35 1010 29.83 839 24.78 7.9 46.1 83 5.1 41.2
22:40 1010 29.83 839 24.78 7.8 46 83 5.1 41.1
22:45 1010 29.83 839 24.78 7.7 45.8 84 5.2 41.3
22:50 1010 29.83 839 24.78 7.5 45.6 85 5.2 41.3
22:55 1010 29.83 839 24.78 7.4 45.2 85 5.1 41.1
23:00 1010 29.83 839 24.78 7.1 44.8 85 4.7 40.5
23:05 1010 29.83 839 24.78 6.9 44.5 86 4.8 40.6
23:10 1010 29.83 839 24.78 6.9 44.4 85 4.6 40.2
23:15 1010 29.83 839 24.78 6.8 44.3 83 4.1 39.5
23:20 1010 29.83 839 24.78 6.7 44 85 4.3 39.8
23:25 1010 29.83 839 24.78 6.5 43.7 87 4.4 40
23:30 1010 29.83 839 24.78 6.4 43.5 88 4.5 40.2
23:35 1010 29.83 839 24.78 6.2 43.2 87 4.2 39.6
23:40 1010 29.83 839 24.78 6.2 43.2 88 4.4 40
23:45 1010 29.83 839 24.78 6.2 43.1 89 4.5 40.1
23:50 1010 29.83 839 24.78 6.1 43 89 4.5 40.1
23:55 1010 29.83 839 24.78 6.1 43 85 3.8 38.8
24:00 1010 29.83 839 24.78 6.4 43.6 83 3.7 38.7